sensor_id;sensor_type;location;lat;lon;timestamp;temperature;humidity
65369;HTU21D;51970;53.484;49.488;2023-11-22T00:01:15;-2.66;94.93
65369;HTU21D;51970;53.484;49.488;2023-11-22T00:03:41;-2.69;94.74
65369;HTU21D;51970;53.484;49.488;2023-11-22T00:06:07;-2.74;94.82
65369;HTU21D;51970;53.484;49.488;2023-11-22T00:08:33;-2.76;94.75
65369;HTU21D;51970;53.484;49.488;2023-11-22T00:11:00;-2.78;94.92
65369;HTU21D;51970;53.484;49.488;2023-11-22T00:13:26;-2.77;94.98
65369;HTU21D;51970;53.484;49.488;2023-11-22T00:15:52;-2.80;94.94
65369;HTU21D;51970;53.484;49.488;2023-11-22T00:18:19;-2.83;94.81
65369;HTU21D;51970;53.484;49.488;2023-11-22T00:20:45;-2.89;94.80
65369;HTU21D;51970;53.484;49.488;2023-11-22T00:23:14;-2.91;94.69
65369;HTU21D;51970;53.484;49.488;2023-11-22T00:25:41;-2.90;94.65
65369;HTU21D;51970;53.484;49.488;2023-11-22T00:28:07;-2.97;94.59
65369;HTU21D;51970;53.484;49.488;2023-11-22T00:30:33;-3.00;94.44
65369;HTU21D;51970;53.484;49.488;2023-11-22T00:32:59;-3.03;94.56
65369;HTU21D;51970;53.484;49.488;2023-11-22T00:35:26;-3.03;94.58
65369;HTU21D;51970;53.484;49.488;2023-11-22T00:37:53;-3.04;94.52
65369;HTU21D;51970;53.484;49.488;2023-11-22T00:40:19;-3.06;94.56
65369;HTU21D;51970;53.484;49.488;2023-11-22T00:42:46;-3.06;94.46
65369;HTU21D;51970;53.484;49.488;2023-11-22T00:45:13;-3.08;94.56
65369;HTU21D;51970;53.484;49.488;2023-11-22T00:47:39;-3.10;94.32
65369;HTU21D;51970;53.484;49.488;2023-11-22T00:50:06;-3.08;94.54
65369;HTU21D;51970;53.484;49.488;2023-11-22T00:52:33;-3.13;94.46
65369;HTU21D;51970;53.484;49.488;2023-11-22T00:54:59;-3.12;94.50
65369;HTU21D;51970;53.484;49.488;2023-11-22T00:57:26;-3.18;94.30
65369;HTU21D;51970;53.484;49.488;2023-11-22T00:59:56;-3.22;94.17
65369;HTU21D;51970;53.484;49.488;2023-11-22T01:02:23;-3.24;93.98
65369;HTU21D;51970;53.484;49.488;2023-11-22T01:04:49;-3.22;94.10
65369;HTU21D;51970;53.484;49.488;2023-11-22T01:07:16;-3.25;94.11
65369;HTU21D;51970;53.484;49.488;2023-11-22T01:09:42;-3.32;93.80
65369;HTU21D;51970;53.484;49.488;2023-11-22T01:12:08;-3.37;93.74
65369;HTU21D;51970;53.484;49.488;2023-11-22T01:14:35;-3.38;93.60
65369;HTU21D;51970;53.484;49.488;2023-11-22T01:17:01;-3.41;93.72
65369;HTU21D;51970;53.484;49.488;2023-11-22T01:19:27;-3.43;93.67
65369;HTU21D;51970;53.484;49.488;2023-11-22T01:21:54;-3.46;93.52
65369;HTU21D;51970;53.484;49.488;2023-11-22T01:24:20;-3.49;93.70
65369;HTU21D;51970;53.484;49.488;2023-11-22T01:26:47;-3.45;93.71
65369;HTU21D;51970;53.484;49.488;2023-11-22T01:29:13;-3.52;93.78
65369;HTU21D;51970;53.484;49.488;2023-11-22T01:31:39;-3.53;93.81
65369;HTU21D;51970;53.484;49.488;2023-11-22T01:34:08;-3.53;93.47
65369;HTU21D;51970;53.484;49.488;2023-11-22T01:36:34;-3.55;93.62
65369;HTU21D;51970;53.484;49.488;2023-11-22T01:39:00;-3.55;93.30
65369;HTU21D;51970;53.484;49.488;2023-11-22T01:41:29;-3.57;93.37
65369;HTU21D;51970;53.484;49.488;2023-11-22T01:43:56;-3.62;93.25
65369;HTU21D;51970;53.484;49.488;2023-11-22T01:46:23;-3.65;92.95
65369;HTU21D;51970;53.484;49.488;2023-11-22T01:48:52;-3.66;93.34
65369;HTU21D;51970;53.484;49.488;2023-11-22T01:51:20;-3.65;93.16
65369;HTU21D;51970;53.484;49.488;2023-11-22T01:53:48;-3.62;93.11
65369;HTU21D;51970;53.484;49.488;2023-11-22T01:56:16;-3.70;93.11
65369;HTU21D;51970;53.484;49.488;2023-11-22T01:58:43;-3.71;93.01
65369;HTU21D;51970;53.484;49.488;2023-11-22T02:01:11;-3.72;93.04
65369;HTU21D;51970;53.484;49.488;2023-11-22T02:03:38;-3.74;93.20
65369;HTU21D;51970;53.484;49.488;2023-11-22T02:06:05;-3.75;92.98
65369;HTU21D;51970;53.484;49.488;2023-11-22T02:08:32;-3.76;92.95
65369;HTU21D;51970;53.484;49.488;2023-11-22T02:10:59;-3.78;92.93
65369;HTU21D;51970;53.484;49.488;2023-11-22T02:13:25;-3.77;92.95
65369;HTU21D;51970;53.484;49.488;2023-11-22T02:15:52;-3.76;92.87
65369;HTU21D;51970;53.484;49.488;2023-11-22T02:18:23;-3.79;92.71
65369;HTU21D;51970;53.484;49.488;2023-11-22T02:20:49;-3.77;92.77
65369;HTU21D;51970;53.484;49.488;2023-11-22T02:23:15;-3.76;92.48
65369;HTU21D;51970;53.484;49.488;2023-11-22T02:25:41;-3.82;92.55
65369;HTU21D;51970;53.484;49.488;2023-11-22T02:28:07;-3.84;92.50
65369;HTU21D;51970;53.484;49.488;2023-11-22T02:30:34;-3.84;92.06
65369;HTU21D;51970;53.484;49.488;2023-11-22T02:33:00;-3.85;91.97
65369;HTU21D;51970;53.484;49.488;2023-11-22T02:35:27;-3.84;92.29
65369;HTU21D;51970;53.484;49.488;2023-11-22T02:37:53;-3.84;92.42
65369;HTU21D;51970;53.484;49.488;2023-11-22T02:40:20;-3.83;92.46
65369;HTU21D;51970;53.484;49.488;2023-11-22T02:42:51;-3.86;92.32
65369;HTU21D;51970;53.484;49.488;2023-11-22T02:45:20;-3.86;92.67
65369;HTU21D;51970;53.484;49.488;2023-11-22T02:47:49;-3.89;92.18
65369;HTU21D;51970;53.484;49.488;2023-11-22T02:50:16;-3.86;92.18
65369;HTU21D;51970;53.484;49.488;2023-11-22T02:52:42;-3.90;92.43
65369;HTU21D;51970;53.484;49.488;2023-11-22T02:55:09;-3.93;91.84
65369;HTU21D;51970;53.484;49.488;2023-11-22T02:57:39;-3.93;92.18
65369;HTU21D;51970;53.484;49.488;2023-11-22T03:00:10;-3.93;92.22
65369;HTU21D;51970;53.484;49.488;2023-11-22T03:02:40;-3.99;91.75
65369;HTU21D;51970;53.484;49.488;2023-11-22T03:05:11;-3.98;92.32
65369;HTU21D;51970;53.484;49.488;2023-11-22T03:07:38;-4.01;92.56
65369;HTU21D;51970;53.484;49.488;2023-11-22T03:10:05;-4.01;92.31
65369;HTU21D;51970;53.484;49.488;2023-11-22T03:12:34;-3.95;92.56
65369;HTU21D;51970;53.484;49.488;2023-11-22T03:15:00;-4.01;92.63
65369;HTU21D;51970;53.484;49.488;2023-11-22T03:17:28;-4.04;92.34
65369;HTU21D;51970;53.484;49.488;2023-11-22T03:19:58;-4.06;92.72
65369;HTU21D;51970;53.484;49.488;2023-11-22T03:22:25;-4.07;93.01
65369;HTU21D;51970;53.484;49.488;2023-11-22T03:24:52;-3.98;93.07
65369;HTU21D;51970;53.484;49.488;2023-11-22T03:27:21;-4.06;92.68
65369;HTU21D;51970;53.484;49.488;2023-11-22T03:29:49;-4.11;92.69
65369;HTU21D;51970;53.484;49.488;2023-11-22T03:32:15;-4.10;92.84
65369;HTU21D;51970;53.484;49.488;2023-11-22T03:34:42;-4.10;92.89
65369;HTU21D;51970;53.484;49.488;2023-11-22T03:37:08;-3.98;92.88
65369;HTU21D;51970;53.484;49.488;2023-11-22T03:39:34;-4.13;92.82
65369;HTU21D;51970;53.484;49.488;2023-11-22T03:42:01;-4.16;92.55
65369;HTU21D;51970;53.484;49.488;2023-11-22T03:44:27;-4.17;92.65
65369;HTU21D;51970;53.484;49.488;2023-11-22T03:46:54;-4.15;92.70
65369;HTU21D;51970;53.484;49.488;2023-11-22T03:49:20;-4.21;92.66
65369;HTU21D;51970;53.484;49.488;2023-11-22T03:51:47;-4.23;92.89
65369;HTU21D;51970;53.484;49.488;2023-11-22T03:54:14;-4.24;92.81
65369;HTU21D;51970;53.484;49.488;2023-11-22T03:56:40;-4.26;92.18
65369;HTU21D;51970;53.484;49.488;2023-11-22T03:59:07;-4.25;92.67
65369;HTU21D;51970;53.484;49.488;2023-11-22T04:01:33;-4.26;92.82
65369;HTU21D;51970;53.484;49.488;2023-11-22T04:03:59;-4.25;92.78
65369;HTU21D;51970;53.484;49.488;2023-11-22T04:06:25;-4.28;92.59
65369;HTU21D;51970;53.484;49.488;2023-11-22T04:08:51;-4.24;92.46
65369;HTU21D;51970;53.484;49.488;2023-11-22T04:11:19;-4.34;92.79
65369;HTU21D;51970;53.484;49.488;2023-11-22T04:13:45;-4.37;92.73
65369;HTU21D;51970;53.484;49.488;2023-11-22T04:16:11;-4.35;92.88
65369;HTU21D;51970;53.484;49.488;2023-11-22T04:18:39;-4.32;92.85
65369;HTU21D;51970;53.484;49.488;2023-11-22T04:21:08;-4.35;92.91
65369;HTU21D;51970;53.484;49.488;2023-11-22T04:23:35;-4.36;92.52
65369;HTU21D;51970;53.484;49.488;2023-11-22T04:26:02;-4.36;92.40
65369;HTU21D;51970;53.484;49.488;2023-11-22T04:28:34;-4.40;91.76
65369;HTU21D;51970;53.484;49.488;2023-11-22T04:31:00;-4.40;92.16
65369;HTU21D;51970;53.484;49.488;2023-11-22T04:33:26;-4.40;92.20
65369;HTU21D;51970;53.484;49.488;2023-11-22T04:35:56;-4.37;92.29
65369;HTU21D;51970;53.484;49.488;2023-11-22T04:38:22;-4.40;92.10
65369;HTU21D;51970;53.484;49.488;2023-11-22T04:40:48;-4.40;92.30
65369;HTU21D;51970;53.484;49.488;2023-11-22T04:43:14;-4.43;91.58
65369;HTU21D;51970;53.484;49.488;2023-11-22T04:45:40;-4.42;92.14
65369;HTU21D;51970;53.484;49.488;2023-11-22T04:48:06;-4.44;91.57
65369;HTU21D;51970;53.484;49.488;2023-11-22T04:50:33;-4.45;91.49
65369;HTU21D;51970;53.484;49.488;2023-11-22T04:53:00;-4.44;91.56
65369;HTU21D;51970;53.484;49.488;2023-11-22T04:55:29;-4.45;91.48
65369;HTU21D;51970;53.484;49.488;2023-11-22T04:57:56;-4.45;91.81
65369;HTU21D;51970;53.484;49.488;2023-11-22T05:00:22;-4.48;90.98
65369;HTU21D;51970;53.484;49.488;2023-11-22T05:02:51;-4.44;91.76
65369;HTU21D;51970;53.484;49.488;2023-11-22T05:05:17;-4.43;91.89
65369;HTU21D;51970;53.484;49.488;2023-11-22T05:07:44;-4.48;91.43
65369;HTU21D;51970;53.484;49.488;2023-11-22T05:10:13;-4.45;91.74
65369;HTU21D;51970;53.484;49.488;2023-11-22T05:12:40;-4.44;91.28
65369;HTU21D;51970;53.484;49.488;2023-11-22T05:15:07;-4.42;91.96
65369;HTU21D;51970;53.484;49.488;2023-11-22T05:17:34;-4.41;91.43
65369;HTU21D;51970;53.484;49.488;2023-11-22T05:20:01;-4.41;91.79
65369;HTU21D;51970;53.484;49.488;2023-11-22T05:22:27;-4.37;91.94
65369;HTU21D;51970;53.484;49.488;2023-11-22T05:24:54;-4.35;91.85
65369;HTU21D;51970;53.484;49.488;2023-11-22T05:27:20;-4.34;91.43
65369;HTU21D;51970;53.484;49.488;2023-11-22T05:29:46;-4.34;91.52
65369;HTU21D;51970;53.484;49.488;2023-11-22T05:32:13;-4.32;91.12
65369;HTU21D;51970;53.484;49.488;2023-11-22T05:34:39;-4.29;91.52
65369;HTU21D;51970;53.484;49.488;2023-11-22T05:37:06;-4.22;91.92
65369;HTU21D;51970;53.484;49.488;2023-11-22T05:39:32;-4.15;91.97
65369;HTU21D;51970;53.484;49.488;2023-11-22T05:41:59;-4.16;91.79
65369;HTU21D;51970;53.484;49.488;2023-11-22T05:44:25;-4.16;91.25
65369;HTU21D;51970;53.484;49.488;2023-11-22T05:46:52;-4.16;91.53
65369;HTU21D;51970;53.484;49.488;2023-11-22T05:49:20;-4.15;91.50
65369;HTU21D;51970;53.484;49.488;2023-11-22T05:51:46;-4.17;91.67
65369;HTU21D;51970;53.484;49.488;2023-11-22T05:54:12;-4.21;90.99
65369;HTU21D;51970;53.484;49.488;2023-11-22T05:56:39;-4.22;91.21
65369;HTU21D;51970;53.484;49.488;2023-11-22T05:59:05;-4.27;90.74
65369;HTU21D;51970;53.484;49.488;2023-11-22T06:01:32;-4.25;90.77
65369;HTU21D;51970;53.484;49.488;2023-11-22T06:03:58;-4.30;91.31
65369;HTU21D;51970;53.484;49.488;2023-11-22T06:06:24;-4.28;91.36
65369;HTU21D;51970;53.484;49.488;2023-11-22T06:08:51;-4.34;91.44
65369;HTU21D;51970;53.484;49.488;2023-11-22T06:11:19;-4.27;91.33
65369;HTU21D;51970;53.484;49.488;2023-11-22T06:13:46;-4.37;91.02
65369;HTU21D;51970;53.484;49.488;2023-11-22T06:16:13;-4.41;91.02
65369;HTU21D;51970;53.484;49.488;2023-11-22T06:18:39;-4.38;91.23
65369;HTU21D;51970;53.484;49.488;2023-11-22T06:21:10;-4.38;91.30
65369;HTU21D;51970;53.484;49.488;2023-11-22T06:23:36;-4.45;90.73
65369;HTU21D;51970;53.484;49.488;2023-11-22T06:26:02;-4.48;90.50
65369;HTU21D;51970;53.484;49.488;2023-11-22T06:28:29;-4.49;90.88
65369;HTU21D;51970;53.484;49.488;2023-11-22T06:30:55;-4.45;90.70
65369;HTU21D;51970;53.484;49.488;2023-11-22T06:33:21;-4.45;91.19
65369;HTU21D;51970;53.484;49.488;2023-11-22T06:35:47;-4.48;90.45
65369;HTU21D;51970;53.484;49.488;2023-11-22T06:38:14;-4.46;91.05
65369;HTU21D;51970;53.484;49.488;2023-11-22T06:40:40;-4.40;90.44
65369;HTU21D;51970;53.484;49.488;2023-11-22T06:43:06;-4.35;91.02
65369;HTU21D;51970;53.484;49.488;2023-11-22T06:45:33;-4.41;90.63
65369;HTU21D;51970;53.484;49.488;2023-11-22T06:47:59;-4.48;90.48
65369;HTU21D;51970;53.484;49.488;2023-11-22T06:50:25;-4.45;90.02
65369;HTU21D;51970;53.484;49.488;2023-11-22T06:52:52;-4.56;89.71
65369;HTU21D;51970;53.484;49.488;2023-11-22T06:55:18;-4.48;90.63
65369;HTU21D;51970;53.484;49.488;2023-11-22T06:57:45;-4.41;90.44
65369;HTU21D;51970;53.484;49.488;2023-11-22T07:00:11;-4.45;90.84
65369;HTU21D;51970;53.484;49.488;2023-11-22T07:02:38;-4.43;90.47
65369;HTU21D;51970;53.484;49.488;2023-11-22T07:05:05;-4.43;89.37
65369;HTU21D;51970;53.484;49.488;2023-11-22T07:07:35;-4.38;90.71
65369;HTU21D;51970;53.484;49.488;2023-11-22T07:10:02;-4.39;90.38
65369;HTU21D;51970;53.484;49.488;2023-11-22T07:12:28;-4.42;90.47
65369;HTU21D;51970;53.484;49.488;2023-11-22T07:14:54;-4.46;89.66
65369;HTU21D;51970;53.484;49.488;2023-11-22T07:17:21;-4.41;90.02
65369;HTU21D;51970;53.484;49.488;2023-11-22T07:19:48;-4.35;90.15
65369;HTU21D;51970;53.484;49.488;2023-11-22T07:22:18;-4.32;89.84
65369;HTU21D;51970;53.484;49.488;2023-11-22T07:24:46;-4.37;90.01
65369;HTU21D;51970;53.484;49.488;2023-11-22T07:27:25;-4.32;90.26
65369;HTU21D;51970;53.484;49.488;2023-11-22T07:29:51;-4.38;89.65
65369;HTU21D;51970;53.484;49.488;2023-11-22T07:32:18;-4.37;89.87
65369;HTU21D;51970;53.484;49.488;2023-11-22T07:34:46;-4.35;89.47
65369;HTU21D;51970;53.484;49.488;2023-11-22T07:37:12;-4.31;89.41
65369;HTU21D;51970;53.484;49.488;2023-11-22T07:39:39;-4.32;89.55
65369;HTU21D;51970;53.484;49.488;2023-11-22T07:42:05;-4.29;89.44
65369;HTU21D;51970;53.484;49.488;2023-11-22T07:44:35;-4.01;89.86
65369;HTU21D;51970;53.484;49.488;2023-11-22T07:47:03;-4.23;89.18
65369;HTU21D;51970;53.484;49.488;2023-11-22T07:49:33;-4.11;89.41
65369;HTU21D;51970;53.484;49.488;2023-11-22T07:52:04;-4.15;88.95
65369;HTU21D;51970;53.484;49.488;2023-11-22T07:54:31;-4.24;89.41
65369;HTU21D;51970;53.484;49.488;2023-11-22T07:56:57;-4.32;89.25
65369;HTU21D;51970;53.484;49.488;2023-11-22T07:59:23;-4.32;89.41
65369;HTU21D;51970;53.484;49.488;2023-11-22T08:01:49;-4.37;88.65
65369;HTU21D;51970;53.484;49.488;2023-11-22T08:04:15;-4.41;88.92
65369;HTU21D;51970;53.484;49.488;2023-11-22T08:06:44;-4.35;89.71
65369;HTU21D;51970;53.484;49.488;2023-11-22T08:09:11;-4.25;89.38
65369;HTU21D;51970;53.484;49.488;2023-11-22T08:11:37;-4.23;89.31
65369;HTU21D;51970;53.484;49.488;2023-11-22T08:14:03;-4.31;88.83
65369;HTU21D;51970;53.484;49.488;2023-11-22T08:16:29;-4.29;88.28
65369;HTU21D;51970;53.484;49.488;2023-11-22T08:18:55;-4.31;88.99
65369;HTU21D;51970;53.484;49.488;2023-11-22T08:21:23;-4.30;89.15
65369;HTU21D;51970;53.484;49.488;2023-11-22T08:23:49;-4.25;88.82
65369;HTU21D;51970;53.484;49.488;2023-11-22T08:26:16;-4.46;88.24
65369;HTU21D;51970;53.484;49.488;2023-11-22T08:28:42;-4.45;88.89
65369;HTU21D;51970;53.484;49.488;2023-11-22T08:31:09;-4.52;88.34
65369;HTU21D;51970;53.484;49.488;2023-11-22T08:33:36;-4.49;89.02
65369;HTU21D;51970;53.484;49.488;2023-11-22T08:36:03;-4.49;89.15
65369;HTU21D;51970;53.484;49.488;2023-11-22T08:38:30;-4.50;87.31
65369;HTU21D;51970;53.484;49.488;2023-11-22T08:41:03;-4.58;87.48
65369;HTU21D;51970;53.484;49.488;2023-11-22T08:43:32;-4.55;88.83
65369;HTU21D;51970;53.484;49.488;2023-11-22T08:45:58;-4.51;88.73
65369;HTU21D;51970;53.484;49.488;2023-11-22T08:48:25;-4.58;87.57
65369;HTU21D;51970;53.484;49.488;2023-11-22T08:50:52;-4.51;88.09
65369;HTU21D;51970;53.484;49.488;2023-11-22T08:53:19;-4.60;88.89
65369;HTU21D;51970;53.484;49.488;2023-11-22T08:55:47;-4.49;88.29
65369;HTU21D;51970;53.484;49.488;2023-11-22T08:58:13;-4.59;88.99
65369;HTU21D;51970;53.484;49.488;2023-11-22T09:00:40;-4.55;88.34
65369;HTU21D;51970;53.484;49.488;2023-11-22T09:03:14;-4.60;88.22
65369;HTU21D;51970;53.484;49.488;2023-11-22T09:05:40;-4.69;88.54
65369;HTU21D;51970;53.484;49.488;2023-11-22T09:08:06;-4.69;88.63
65369;HTU21D;51970;53.484;49.488;2023-11-22T09:10:32;-4.72;88.41
65369;HTU21D;51970;53.484;49.488;2023-11-22T09:12:59;-4.81;88.27
65369;HTU21D;51970;53.484;49.488;2023-11-22T09:15:25;-4.79;88.20
65369;HTU21D;51970;53.484;49.488;2023-11-22T09:17:55;-4.76;88.82
65369;HTU21D;51970;53.484;49.488;2023-11-22T09:20:22;-4.78;87.95
65369;HTU21D;51970;53.484;49.488;2023-11-22T09:22:51;-4.70;88.49
65369;HTU21D;51970;53.484;49.488;2023-11-22T09:25:19;-4.65;87.77
65369;HTU21D;51970;53.484;49.488;2023-11-22T09:27:46;-4.68;88.27
65369;HTU21D;51970;53.484;49.488;2023-11-22T09:30:18;-4.83;86.63
65369;HTU21D;51970;53.484;49.488;2023-11-22T09:35:33;-4.81;87.53
65369;HTU21D;51970;53.484;49.488;2023-11-22T09:38:00;-4.83;87.43
65369;HTU21D;51970;53.484;49.488;2023-11-22T09:40:26;-4.94;87.12
65369;HTU21D;51970;53.484;49.488;2023-11-22T09:43:00;-4.87;88.10
65369;HTU21D;51970;53.484;49.488;2023-11-22T09:45:29;-4.88;87.04
65369;HTU21D;51970;53.484;49.488;2023-11-22T09:47:56;-4.99;86.38
65369;HTU21D;51970;53.484;49.488;2023-11-22T09:50:47;-5.00;87.69
65369;HTU21D;51970;53.484;49.488;2023-11-22T09:53:22;-5.08;87.13
65369;HTU21D;51970;53.484;49.488;2023-11-22T09:55:51;-5.16;86.79
65369;HTU21D;51970;53.484;49.488;2023-11-22T09:58:20;-5.03;88.26
65369;HTU21D;51970;53.484;49.488;2023-11-22T10:00:47;-5.08;86.70
65369;HTU21D;51970;53.484;49.488;2023-11-22T10:03:13;-5.16;86.70
65369;HTU21D;51970;53.484;49.488;2023-11-22T10:05:42;-5.16;87.45
65369;HTU21D;51970;53.484;49.488;2023-11-22T10:08:08;-5.19;88.14
65369;HTU21D;51970;53.484;49.488;2023-11-22T10:10:36;-5.17;88.08
65369;HTU21D;51970;53.484;49.488;2023-11-22T10:13:03;-5.22;88.11
65369;HTU21D;51970;53.484;49.488;2023-11-22T10:15:29;-5.25;87.51
65369;HTU21D;51970;53.484;49.488;2023-11-22T10:17:58;-5.23;88.18
65369;HTU21D;51970;53.484;49.488;2023-11-22T10:20:45;-5.25;88.15
65369;HTU21D;51970;53.484;49.488;2023-11-22T10:23:16;-5.29;87.93
65369;HTU21D;51970;53.484;49.488;2023-11-22T10:25:48;-5.41;86.70
65369;HTU21D;51970;53.484;49.488;2023-11-22T10:28:22;-5.43;87.83
65369;HTU21D;51970;53.484;49.488;2023-11-22T10:30:51;-5.49;88.22
65369;HTU21D;51970;53.484;49.488;2023-11-22T10:33:18;-5.48;87.67
65369;HTU21D;51970;53.484;49.488;2023-11-22T10:35:47;-5.50;87.04
65369;HTU21D;51970;53.484;49.488;2023-11-22T10:38:18;-5.48;88.16
65369;HTU21D;51970;53.484;49.488;2023-11-22T10:40:45;-5.54;87.23
65369;HTU21D;51970;53.484;49.488;2023-11-22T10:43:12;-5.55;87.43
65369;HTU21D;51970;53.484;49.488;2023-11-22T10:45:38;-5.54;87.81
65369;HTU21D;51970;53.484;49.488;2023-11-22T10:48:05;-5.59;87.80
65369;HTU21D;51970;53.484;49.488;2023-11-22T10:50:35;-5.60;87.65
65369;HTU21D;51970;53.484;49.488;2023-11-22T10:53:06;-5.49;87.90
65369;HTU21D;51970;53.484;49.488;2023-11-22T10:55:34;-5.56;88.20
65369;HTU21D;51970;53.484;49.488;2023-11-22T10:58:04;-5.50;87.94
65369;HTU21D;51970;53.484;49.488;2023-11-22T11:00:33;-5.54;87.86
65369;HTU21D;51970;53.484;49.488;2023-11-22T11:03:03;-5.59;87.44
65369;HTU21D;51970;53.484;49.488;2023-11-22T11:05:33;-5.70;86.74
65369;HTU21D;51970;53.484;49.488;2023-11-22T11:08:14;-5.71;87.48
65369;HTU21D;51970;53.484;49.488;2023-11-22T11:10:44;-5.83;87.86
65369;HTU21D;51970;53.484;49.488;2023-11-22T11:13:15;-5.77;87.63
65369;HTU21D;51970;53.484;49.488;2023-11-22T11:15:42;-5.91;87.60
65369;HTU21D;51970;53.484;49.488;2023-11-22T11:18:12;-5.88;87.97
65369;HTU21D;51970;53.484;49.488;2023-11-22T11:20:49;-5.93;86.86
65369;HTU21D;51970;53.484;49.488;2023-11-22T11:23:20;-5.96;87.09
65369;HTU21D;51970;53.484;49.488;2023-11-22T11:25:49;-5.99;87.70
65369;HTU21D;51970;53.484;49.488;2023-11-22T11:28:16;-5.98;87.55
65369;HTU21D;51970;53.484;49.488;2023-11-22T11:33:18;-5.96;87.62
65369;HTU21D;51970;53.484;49.488;2023-11-22T11:35:49;-5.93;88.28
65369;HTU21D;51970;53.484;49.488;2023-11-22T11:38:19;-5.91;87.54
65369;HTU21D;51970;53.484;49.488;2023-11-22T11:40:48;-5.91;87.95
65369;HTU21D;51970;53.484;49.488;2023-11-22T11:43:15;-5.87;88.51
65369;HTU21D;51970;53.484;49.488;2023-11-22T11:45:44;-5.88;87.96
65369;HTU21D;51970;53.484;49.488;2023-11-22T11:48:14;-5.88;87.67
65369;HTU21D;51970;53.484;49.488;2023-11-22T11:50:42;-5.91;86.36
65369;HTU21D;51970;53.484;49.488;2023-11-22T11:53:11;-5.92;86.82
65369;HTU21D;51970;53.484;49.488;2023-11-22T11:55:38;-5.90;85.92
65369;HTU21D;51970;53.484;49.488;2023-11-22T11:58:05;-6.00;85.64
65369;HTU21D;51970;53.484;49.488;2023-11-22T12:00:33;-5.99;86.67
65369;HTU21D;51970;53.484;49.488;2023-11-22T12:03:00;-5.99;86.58
65369;HTU21D;51970;53.484;49.488;2023-11-22T12:05:26;-6.04;87.25
65369;HTU21D;51970;53.484;49.488;2023-11-22T12:07:53;-5.97;87.30
65369;HTU21D;51970;53.484;49.488;2023-11-22T12:10:21;-6.06;87.48
65369;HTU21D;51970;53.484;49.488;2023-11-22T12:12:47;-6.01;87.64
65369;HTU21D;51970;53.484;49.488;2023-11-22T12:15:15;-6.04;86.80
65369;HTU21D;51970;53.484;49.488;2023-11-22T12:17:41;-6.13;86.06
65369;HTU21D;51970;53.484;49.488;2023-11-22T12:20:15;-6.16;86.50
65369;HTU21D;51970;53.484;49.488;2023-11-22T12:22:47;-6.26;85.52
65369;HTU21D;51970;53.484;49.488;2023-11-22T12:25:14;-6.29;85.82
65369;HTU21D;51970;53.484;49.488;2023-11-22T12:27:44;-6.38;84.72
65369;HTU21D;51970;53.484;49.488;2023-11-22T12:30:34;-6.46;85.77
65369;HTU21D;51970;53.484;49.488;2023-11-22T12:33:05;-6.49;85.97
65369;HTU21D;51970;53.484;49.488;2023-11-22T12:35:31;-6.47;86.12
65369;HTU21D;51970;53.484;49.488;2023-11-22T12:38:02;-6.50;86.38
65369;HTU21D;51970;53.484;49.488;2023-11-22T12:40:30;-6.47;86.49
65369;HTU21D;51970;53.484;49.488;2023-11-22T12:43:00;-6.47;86.23
65369;HTU21D;51970;53.484;49.488;2023-11-22T12:45:27;-6.48;85.80
65369;HTU21D;51970;53.484;49.488;2023-11-22T12:47:55;-6.55;85.32
65369;HTU21D;51970;53.484;49.488;2023-11-22T12:50:38;-6.56;85.11
65369;HTU21D;51970;53.484;49.488;2023-11-22T12:53:08;-6.55;85.80
65369;HTU21D;51970;53.484;49.488;2023-11-22T12:55:46;-6.52;85.70
65369;HTU21D;51970;53.484;49.488;2023-11-22T12:58:21;-6.45;85.80
65369;HTU21D;51970;53.484;49.488;2023-11-22T13:00:50;-6.46;85.85
65369;HTU21D;51970;53.484;49.488;2023-11-22T13:03:16;-6.57;84.52
65369;HTU21D;51970;53.484;49.488;2023-11-22T13:05:44;-6.57;85.61
65369;HTU21D;51970;53.484;49.488;2023-11-22T13:08:11;-6.57;85.36
65369;HTU21D;51970;53.484;49.488;2023-11-22T13:10:46;-6.61;85.80
65369;HTU21D;51970;53.484;49.488;2023-11-22T13:13:14;-6.60;86.22
65369;HTU21D;51970;53.484;49.488;2023-11-22T13:15:40;-6.59;85.97
65369;HTU21D;51970;53.484;49.488;2023-11-22T13:18:07;-6.63;85.30
65369;HTU21D;51970;53.484;49.488;2023-11-22T13:20:34;-6.68;85.03
65369;HTU21D;51970;53.484;49.488;2023-11-22T13:23:01;-6.71;85.06
65369;HTU21D;51970;53.484;49.488;2023-11-22T13:25:28;-6.67;84.93
65369;HTU21D;51970;53.484;49.488;2023-11-22T13:27:54;-6.73;85.42
65369;HTU21D;51970;53.484;49.488;2023-11-22T13:30:22;-6.70;84.68
65369;HTU21D;51970;53.484;49.488;2023-11-22T13:32:53;-6.73;85.38
65369;HTU21D;51970;53.484;49.488;2023-11-22T13:35:22;-6.76;85.40
65369;HTU21D;51970;53.484;49.488;2023-11-22T13:37:49;-6.77;85.38
65369;HTU21D;51970;53.484;49.488;2023-11-22T13:40:17;-6.78;85.13
65369;HTU21D;51970;53.484;49.488;2023-11-22T13:42:47;-6.82;84.68
65369;HTU21D;51970;53.484;49.488;2023-11-22T13:45:14;-6.82;84.77
65369;HTU21D;51970;53.484;49.488;2023-11-22T13:47:48;-6.83;84.55
65369;HTU21D;51970;53.484;49.488;2023-11-22T13:50:17;-6.86;83.99
65369;HTU21D;51970;53.484;49.488;2023-11-22T13:52:53;-6.82;83.75
65369;HTU21D;51970;53.484;49.488;2023-11-22T13:55:19;-6.91;84.52
65369;HTU21D;51970;53.484;49.488;2023-11-22T13:57:56;-6.88;84.54
65369;HTU21D;51970;53.484;49.488;2023-11-22T14:00:25;-6.89;84.28
65369;HTU21D;51970;53.484;49.488;2023-11-22T14:02:59;-6.85;84.58
65369;HTU21D;51970;53.484;49.488;2023-11-22T14:05:32;-6.93;85.38
65369;HTU21D;51970;53.484;49.488;2023-11-22T14:07:59;-6.89;85.66
65369;HTU21D;51970;53.484;49.488;2023-11-22T14:10:26;-6.79;85.08
65369;HTU21D;51970;53.484;49.488;2023-11-22T14:12:52;-6.93;85.00
65369;HTU21D;51970;53.484;49.488;2023-11-22T14:15:18;-6.95;84.63
65369;HTU21D;51970;53.484;49.488;2023-11-22T14:17:45;-6.94;85.03
65369;HTU21D;51970;53.484;49.488;2023-11-22T14:20:16;-6.90;84.90
65369;HTU21D;51970;53.484;49.488;2023-11-22T14:22:42;-6.94;84.23
65369;HTU21D;51970;53.484;49.488;2023-11-22T14:25:09;-6.95;84.45
65369;HTU21D;51970;53.484;49.488;2023-11-22T14:27:43;-6.93;84.38
65369;HTU21D;51970;53.484;49.488;2023-11-22T14:30:10;-6.92;84.14
65369;HTU21D;51970;53.484;49.488;2023-11-22T14:32:39;-6.95;83.41
65369;HTU21D;51970;53.484;49.488;2023-11-22T14:35:06;-6.94;84.07
65369;HTU21D;51970;53.484;49.488;2023-11-22T14:37:36;-6.96;84.14
65369;HTU21D;51970;53.484;49.488;2023-11-22T14:40:04;-6.96;84.01
65369;HTU21D;51970;53.484;49.488;2023-11-22T14:42:30;-6.97;82.97
65369;HTU21D;51970;53.484;49.488;2023-11-22T14:44:57;-7.01;82.65
65369;HTU21D;51970;53.484;49.488;2023-11-22T14:47:23;-7.02;83.11
65369;HTU21D;51970;53.484;49.488;2023-11-22T14:49:51;-6.98;83.69
65369;HTU21D;51970;53.484;49.488;2023-11-22T14:52:18;-7.07;83.88
65369;HTU21D;51970;53.484;49.488;2023-11-22T14:54:47;-7.04;85.22
65369;HTU21D;51970;53.484;49.488;2023-11-22T14:57:14;-7.08;85.70
65369;HTU21D;51970;53.484;49.488;2023-11-22T14:59:43;-7.07;85.92
65369;HTU21D;51970;53.484;49.488;2023-11-22T15:02:11;-7.05;85.61
65369;HTU21D;51970;53.484;49.488;2023-11-22T15:04:38;-7.04;85.12
65369;HTU21D;51970;53.484;49.488;2023-11-22T15:07:04;-6.94;84.18
65369;HTU21D;51970;53.484;49.488;2023-11-22T15:09:34;-6.92;83.89
65369;HTU21D;51970;53.484;49.488;2023-11-22T15:12:00;-6.96;82.92